createdAt,value
2022-11-12T00:00:56.502Z,7.66
2022-11-12T00:01:56.508Z,7.66
2022-11-12T00:02:56.498Z,7.67
2022-11-12T00:03:56.435Z,7.67
2022-11-12T00:04:56.455Z,7.66
2022-11-12T00:05:56.438Z,7.67
2022-11-12T00:06:56.458Z,7.67
2022-11-12T00:07:56.402Z,7.63
2022-11-12T00:08:56.393Z,7.63
2022-11-12T00:09:56.366Z,7.66
2022-11-12T00:10:56.362Z,7.66
2022-11-12T00:11:56.363Z,7.60
2022-11-12T00:12:56.340Z,7.58
2022-11-12T00:13:56.311Z,7.58
2022-11-12T00:14:56.299Z,7.57
2022-11-12T00:15:56.356Z,7.57
2022-11-12T00:16:56.290Z,7.55
2022-11-12T00:17:56.258Z,7.55
2022-11-12T00:18:56.265Z,7.58
2022-11-12T00:19:56.247Z,7.55
2022-11-12T00:20:56.230Z,7.54
2022-11-12T00:21:56.364Z,7.57
2022-11-12T00:22:56.229Z,7.57
2022-11-12T00:23:56.233Z,7.57
2022-11-12T00:24:56.270Z,7.57
2022-11-12T00:25:56.244Z,7.57
2022-11-12T00:26:56.181Z,7.58
2022-11-12T00:27:56.187Z,7.60
2022-11-12T00:28:56.171Z,7.60
2022-11-12T00:29:56.111Z,7.58
2022-11-12T00:30:56.106Z,7.62
2022-11-12T00:31:56.088Z,7.62
2022-11-12T00:32:56.065Z,7.62
2022-11-12T00:33:56.059Z,7.60
2022-11-12T00:34:56.056Z,7.60
2022-11-12T00:35:56.056Z,7.58
2022-11-12T00:36:56.155Z,7.57
2022-11-12T00:37:56.020Z,7.60
2022-11-12T00:38:56.028Z,7.60
2022-11-12T00:39:55.974Z,7.60
2022-11-12T00:40:55.971Z,7.60
2022-11-12T00:41:55.969Z,7.62
2022-11-12T00:42:55.944Z,7.62
2022-11-12T00:43:55.934Z,7.62
2022-11-12T00:44:55.931Z,7.60
2022-11-12T00:45:55.933Z,7.60
2022-11-12T00:46:55.903Z,7.62
2022-11-12T00:47:55.929Z,7.58
2022-11-12T00:48:55.883Z,7.58
2022-11-12T00:49:56.016Z,7.60
2022-11-12T00:50:55.862Z,7.66
2022-11-12T00:51:55.861Z,7.66
2022-11-12T00:52:55.853Z,7.69
2022-11-12T00:53:55.842Z,7.69
2022-11-12T00:54:55.791Z,7.69
2022-11-12T00:55:55.793Z,7.70
2022-11-12T00:56:55.827Z,7.70
2022-11-12T00:57:55.751Z,7.73
2022-11-12T00:58:55.741Z,7.70
2022-11-12T00:59:55.746Z,7.70
2022-11-12T01:00:55.798Z,7.67
2022-11-12T01:01:55.725Z,7.67
2022-11-12T01:02:55.925Z,7.69
2022-11-12T01:03:55.746Z,7.69
2022-11-12T01:04:55.672Z,7.67
2022-11-12T01:05:55.680Z,7.69
2022-11-12T01:06:55.664Z,7.69
2022-11-12T01:07:56.359Z,7.67
2022-11-12T01:08:55.609Z,7.66
2022-11-12T01:09:55.599Z,7.63
2022-11-12T01:10:55.658Z,7.62
2022-11-12T01:11:55.610Z,7.62
2022-11-12T01:12:55.571Z,7.66
2022-11-12T01:13:55.555Z,7.63
2022-11-12T01:14:55.548Z,7.62
2022-11-12T01:15:55.635Z,7.60
2022-11-12T01:16:56.195Z,7.60
2022-11-12T01:17:55.505Z,7.60
2022-11-12T01:18:55.495Z,7.58
2022-11-12T01:19:55.486Z,7.58
2022-11-12T01:20:55.498Z,7.55
2022-11-12T01:21:55.465Z,7.57
2022-11-12T01:22:55.463Z,7.55
2022-11-12T01:23:55.464Z,7.54
2022-11-12T01:24:55.437Z,7.50
2022-11-12T01:25:55.875Z,7.50
2022-11-12T01:26:55.407Z,7.48
2022-11-12T01:27:55.390Z,7.45
2022-11-12T01:28:55.374Z,7.42
2022-11-12T01:29:55.384Z,7.42
2022-11-12T01:30:55.359Z,7.41
2022-11-12T01:31:55.532Z,7.39
2022-11-12T01:32:56.233Z,7.39
2022-11-12T01:33:55.383Z,7.36
2022-11-12T01:34:55.362Z,7.37
2022-11-12T01:35:56.229Z,7.37
2022-11-12T01:36:55.351Z,7.37
2022-11-12T01:37:55.337Z,7.37
2022-11-12T01:38:55.374Z,7.36
2022-11-12T01:39:55.229Z,7.34
2022-11-12T01:40:55.224Z,7.30
2022-11-12T01:41:55.276Z,7.32
2022-11-12T01:42:55.192Z,7.32
2022-11-12T01:43:55.173Z,7.26
2022-11-12T01:44:55.217Z,7.27
2022-11-12T01:45:55.829Z,7.24
2022-11-12T01:46:55.158Z,7.24
2022-11-12T01:47:55.126Z,7.23
2022-11-12T01:48:55.138Z,7.21
2022-11-12T01:49:57.104Z,7.21
2022-11-12T01:50:55.108Z,7.23
2022-11-12T01:51:55.112Z,7.24
2022-11-12T01:52:55.078Z,7.26
2022-11-12T01:53:55.053Z,7.27
2022-11-12T01:54:55.079Z,7.26
2022-11-12T01:55:55.044Z,7.29
2022-11-12T01:56:55.045Z,7.33
2022-11-12T01:57:55.016Z,7.36
2022-11-12T01:58:55.018Z,7.36
2022-11-12T01:59:55.004Z,7.37
2022-11-12T02:00:54.999Z,7.39
2022-11-12T02:01:54.956Z,7.42
2022-11-12T02:02:54.973Z,7.45
2022-11-12T02:03:54.967Z,7.50
2022-11-12T02:04:54.984Z,7.54
2022-11-12T02:05:54.968Z,7.55
2022-11-12T02:06:54.963Z,7.57
2022-11-12T02:07:54.903Z,7.55
2022-11-12T02:08:54.905Z,7.54
2022-11-12T02:09:54.850Z,7.54
2022-11-12T02:10:54.853Z,7.54
2022-11-12T02:11:54.839Z,7.54
2022-11-12T02:12:54.838Z,7.52
2022-11-12T02:13:55.337Z,7.52
2022-11-12T02:14:54.808Z,7.55
2022-11-12T02:15:54.813Z,7.55
2022-11-12T02:16:54.783Z,7.55
2022-11-12T02:17:54.773Z,7.55
2022-11-12T02:18:54.752Z,7.57
2022-11-12T02:19:54.746Z,7.57
2022-11-12T02:20:54.733Z,7.57
2022-11-12T02:21:54.711Z,7.57
2022-11-12T02:22:54.699Z,7.58
2022-11-12T02:23:54.682Z,7.60
2022-11-12T02:24:54.682Z,7.57
2022-11-12T02:25:54.674Z,7.52
2022-11-12T02:26:54.663Z,7.51
2022-11-12T02:27:54.646Z,7.50
2022-11-12T02:28:54.648Z,7.48
2022-11-12T02:29:54.621Z,7.47
2022-11-12T02:30:54.597Z,7.45
2022-11-12T02:31:54.610Z,7.47
2022-11-12T02:32:54.587Z,7.44
2022-11-12T02:33:54.593Z,7.44
2022-11-12T02:34:54.538Z,7.44
2022-11-12T02:35:54.547Z,7.44
2022-11-12T02:36:54.526Z,7.45
2022-11-12T02:37:54.528Z,7.45
2022-11-12T02:38:54.495Z,7.45
2022-11-12T02:39:54.484Z,7.44
2022-11-12T02:40:54.476Z,7.44
2022-11-12T02:41:54.481Z,7.44
2022-11-12T02:42:54.440Z,7.44
2022-11-12T02:43:54.473Z,7.47
2022-11-12T02:44:54.434Z,7.48
2022-11-12T02:45:54.435Z,7.48
2022-11-12T02:46:54.723Z,7.47
2022-11-12T02:47:54.394Z,7.45
2022-11-12T02:48:54.362Z,7.47
2022-11-12T02:49:54.359Z,7.51
2022-11-12T02:50:54.383Z,7.51
2022-11-12T02:51:54.363Z,7.51
2022-11-12T02:52:54.323Z,7.50
2022-11-12T02:53:54.303Z,7.51
2022-11-12T02:54:54.293Z,7.54
2022-11-12T02:55:54.301Z,7.52
2022-11-12T02:56:54.263Z,7.55
2022-11-12T02:57:54.282Z,7.54
2022-11-12T02:58:54.244Z,7.55
2022-11-12T02:59:54.255Z,7.55
2022-11-12T03:00:54.263Z,7.55
2022-11-12T03:01:54.202Z,7.58
2022-11-12T03:02:54.190Z,7.57
2022-11-12T03:03:54.200Z,7.57
2022-11-12T03:04:54.164Z,7.57
2022-11-12T03:05:54.162Z,7.58
2022-11-12T03:06:54.179Z,7.57
2022-11-12T03:07:54.159Z,7.58
2022-11-12T03:08:54.128Z,7.57
2022-11-12T03:09:54.120Z,7.55
2022-11-12T03:10:54.109Z,7.54
2022-11-12T03:11:54.078Z,7.51
2022-11-12T03:12:54.091Z,7.52
2022-11-12T03:13:54.077Z,7.48
2022-11-12T03:14:54.037Z,7.48
2022-11-12T03:15:54.027Z,7.48
2022-11-12T03:16:54.006Z,7.50
2022-11-12T03:17:54.095Z,7.48
2022-11-12T03:18:53.985Z,7.47
2022-11-12T03:19:53.984Z,7.44
2022-11-12T03:20:53.975Z,7.39
2022-11-12T03:21:53.946Z,7.36
2022-11-12T03:22:53.994Z,7.36
2022-11-12T03:23:53.925Z,7.33
2022-11-12T03:24:53.904Z,7.32
2022-11-12T03:25:53.902Z,7.30
2022-11-12T03:26:53.896Z,7.30
2022-11-12T03:27:53.875Z,7.30
2022-11-12T03:28:53.855Z,7.29
2022-11-12T03:29:53.851Z,7.27
2022-11-12T03:30:53.836Z,7.24
2022-11-12T03:31:53.834Z,7.24
2022-11-12T03:32:53.825Z,7.24
2022-11-12T03:33:53.802Z,7.21
2022-11-12T03:34:55.545Z,7.23
2022-11-12T03:35:53.789Z,7.19
2022-11-12T03:36:53.811Z,7.16
2022-11-12T03:37:53.880Z,7.15
2022-11-12T03:38:53.735Z,7.14
2022-11-12T03:39:53.795Z,7.11
2022-11-12T03:40:53.768Z,7.09
2022-11-12T03:41:53.709Z,7.11
2022-11-12T03:42:53.697Z,7.09
2022-11-12T03:43:53.699Z,7.08
2022-11-12T03:44:53.693Z,7.09
2022-11-12T03:45:53.651Z,7.09
2022-11-12T03:46:53.654Z,7.11
2022-11-12T03:47:53.631Z,7.09
2022-11-12T03:48:53.640Z,7.12
2022-11-12T03:49:53.621Z,7.08
2022-11-12T03:50:53.660Z,7.05
2022-11-12T03:51:53.633Z,7.07
2022-11-12T03:52:53.599Z,7.01
2022-11-12T03:53:53.573Z,7.01
2022-11-12T03:54:53.539Z,7.00
2022-11-12T03:55:53.557Z,6.99
2022-11-12T03:56:53.608Z,7.00
2022-11-12T03:57:53.510Z,7.01
2022-11-12T03:58:53.498Z,7.04
2022-11-12T03:59:53.488Z,7.01
2022-11-12T04:00:53.566Z,7.01
2022-11-12T04:01:53.456Z,7.04
2022-11-12T04:02:53.489Z,7.01
2022-11-12T04:03:53.444Z,7.01
2022-11-12T04:04:53.444Z,7.00
2022-11-12T04:05:53.506Z,6.99
2022-11-12T04:06:53.460Z,6.99
2022-11-12T04:07:53.406Z,6.99
2022-11-12T04:08:55.367Z,6.99
2022-11-12T04:09:53.354Z,6.99
2022-11-12T04:10:53.599Z,6.97
2022-11-12T04:11:53.388Z,6.99
2022-11-12T04:12:53.351Z,6.96
2022-11-12T04:13:53.332Z,6.96
2022-11-12T04:14:53.337Z,6.96
2022-11-12T04:15:53.295Z,6.96
2022-11-12T04:16:53.275Z,6.91
2022-11-12T04:17:53.263Z,6.93
2022-11-12T04:18:53.262Z,6.94
2022-11-12T04:19:54.202Z,6.93
2022-11-12T04:20:53.231Z,6.94
2022-11-12T04:21:53.223Z,6.93
2022-11-12T04:22:53.218Z,6.91
2022-11-12T04:23:53.204Z,6.90
2022-11-12T04:24:53.186Z,6.89
2022-11-12T04:25:53.211Z,6.86
2022-11-12T04:26:53.230Z,6.82
2022-11-12T04:27:53.152Z,6.81
2022-11-12T04:28:53.158Z,6.79
2022-11-12T04:29:53.128Z,6.78
2022-11-12T04:30:53.179Z,6.75
2022-11-12T04:31:53.097Z,6.75
2022-11-12T04:32:53.089Z,6.75
2022-11-12T04:33:53.070Z,6.72
2022-11-12T04:34:53.109Z,6.65
2022-11-12T04:35:53.048Z,6.64
2022-11-12T04:36:53.041Z,6.63
2022-11-12T04:37:53.027Z,6.63
2022-11-12T04:38:53.008Z,6.63
2022-11-12T04:39:53.005Z,6.63
2022-11-12T04:40:52.989Z,6.65
2022-11-12T04:41:53.021Z,6.63
2022-11-12T04:42:52.987Z,6.61
2022-11-12T04:43:52.955Z,6.58
2022-11-12T04:44:52.950Z,6.58
2022-11-12T04:45:52.918Z,6.60
2022-11-12T04:46:52.907Z,6.58
2022-11-12T04:47:52.894Z,6.58
2022-11-12T04:48:52.901Z,6.58
2022-11-12T04:49:52.884Z,6.60
2022-11-12T04:50:52.873Z,6.61
2022-11-12T04:51:52.876Z,6.60
2022-11-12T04:52:52.840Z,6.58
2022-11-12T04:53:52.875Z,6.57
2022-11-12T04:54:52.824Z,6.55
2022-11-12T04:55:52.814Z,6.54
2022-11-12T04:56:53.353Z,6.53
2022-11-12T04:57:56.142Z,6.51
2022-11-12T04:58:53.761Z,6.46
2022-11-12T04:59:52.742Z,6.46
2022-11-12T05:00:52.862Z,6.46
2022-11-12T05:01:52.740Z,6.45
2022-11-12T05:02:52.720Z,6.43
2022-11-12T05:03:52.703Z,6.39
2022-11-12T05:04:52.681Z,6.40
2022-11-12T05:05:52.708Z,6.36
2022-11-12T05:06:52.732Z,6.36
2022-11-12T05:07:52.663Z,6.36
2022-11-12T05:08:52.658Z,6.39
2022-11-12T05:09:52.710Z,6.39
2022-11-12T05:10:52.608Z,6.38
2022-11-12T05:11:52.601Z,6.32
2022-11-12T05:12:52.604Z,6.28
2022-11-12T05:13:52.576Z,6.30
2022-11-12T05:14:52.619Z,6.30
2022-11-12T05:15:52.556Z,6.28
2022-11-12T05:16:52.579Z,6.20
2022-11-12T05:17:52.530Z,6.17
2022-11-12T05:18:52.517Z,6.14
2022-11-12T05:19:52.498Z,6.13
2022-11-12T05:20:52.486Z,6.16
2022-11-12T05:21:52.490Z,6.16
2022-11-12T05:23:05.462Z,6.19
2022-11-12T05:23:53.457Z,6.17
2022-11-12T05:24:52.448Z,6.19
2022-11-12T05:25:52.437Z,6.17
2022-11-12T05:26:52.408Z,6.16
2022-11-12T05:27:52.418Z,6.14
2022-11-12T05:28:52.392Z,6.14
2022-11-12T05:29:52.376Z,6.11
2022-11-12T05:30:52.397Z,6.16
2022-11-12T05:31:52.356Z,6.19
2022-11-12T05:32:52.364Z,6.21
2022-11-12T05:33:52.324Z,6.21
2022-11-12T05:34:52.302Z,6.20
2022-11-12T05:35:52.311Z,6.19
2022-11-12T05:36:52.301Z,6.19
2022-11-12T05:37:52.283Z,6.20
2022-11-12T05:38:52.264Z,6.19
2022-11-12T05:39:52.255Z,6.17
2022-11-12T05:40:52.241Z,6.17
2022-11-12T05:42:11.915Z,6.16
2022-11-12T05:42:53.238Z,6.13
2022-11-12T05:43:52.238Z,6.10
2022-11-12T05:44:52.208Z,6.10
2022-11-12T05:45:52.184Z,6.06
2022-11-12T05:46:52.170Z,6.03
2022-11-12T05:47:52.150Z,6.06
2022-11-12T05:48:52.138Z,6.03
2022-11-12T05:49:52.125Z,6.02
2022-11-12T05:51:11.903Z,6.03
2022-11-12T05:51:53.098Z,6.01
2022-11-12T05:52:52.088Z,6.01
2022-11-12T05:53:52.079Z,5.98
2022-11-12T05:54:52.081Z,5.99
2022-11-12T05:55:52.059Z,5.98
2022-11-12T05:56:52.037Z,5.98
2022-11-12T05:57:52.047Z,5.98
2022-11-12T05:58:52.065Z,5.96
2022-11-12T05:59:52.008Z,5.96
2022-11-12T06:00:51.986Z,5.96
2022-11-12T06:01:51.977Z,5.99
2022-11-12T06:02:52.275Z,6.01
2022-11-12T06:03:51.946Z,6.01
2022-11-12T06:04:51.931Z,6.02
2022-11-12T06:05:52.493Z,6.01
2022-11-12T06:06:51.926Z,6.03
2022-11-12T06:07:52.224Z,6.03
2022-11-12T06:08:51.894Z,6.02
2022-11-12T06:09:51.902Z,6.01
2022-11-12T06:10:51.873Z,5.99
2022-11-12T06:11:51.854Z,5.96
2022-11-12T06:12:51.857Z,5.96
2022-11-12T06:13:51.832Z,5.93
2022-11-12T06:14:51.859Z,5.95
2022-11-12T06:15:52.520Z,5.95
2022-11-12T06:16:51.783Z,5.92
2022-11-12T06:17:51.782Z,5.90
2022-11-12T06:18:51.758Z,5.88
2022-11-12T06:19:51.746Z,6.06
2022-11-12T06:20:51.731Z,6.48
2022-11-12T06:21:51.720Z,6.73
2022-11-12T06:22:51.721Z,6.76
2022-11-12T06:23:51.689Z,6.69
2022-11-12T06:24:51.695Z,6.65
2022-11-12T06:25:51.679Z,6.81
2022-11-12T06:26:51.655Z,6.86
2022-11-12T06:27:51.650Z,6.79
2022-11-12T06:28:51.688Z,6.76
2022-11-12T06:29:51.757Z,6.86
2022-11-12T06:30:51.633Z,6.97
2022-11-12T06:31:51.590Z,7.01
2022-11-12T06:32:51.610Z,7.00
2022-11-12T06:33:51.585Z,6.96
2022-11-12T06:34:51.554Z,6.94
2022-11-12T06:35:51.574Z,6.86
2022-11-12T06:36:51.539Z,6.71
2022-11-12T06:37:51.538Z,6.58
2022-11-12T06:38:51.541Z,6.51
2022-11-12T06:39:51.493Z,6.43
2022-11-12T06:40:51.485Z,6.38
2022-11-12T06:41:51.456Z,6.33
2022-11-12T06:42:51.462Z,6.28
2022-11-12T06:43:51.438Z,6.25
2022-11-12T06:44:51.450Z,6.21
2022-11-12T06:45:51.434Z,6.19
2022-11-12T06:46:51.417Z,6.16
2022-11-12T06:47:51.399Z,6.13
2022-11-12T06:48:51.385Z,6.11
2022-11-12T06:49:51.387Z,6.11
2022-11-12T06:50:51.364Z,6.10
2022-11-12T06:51:51.349Z,6.11
2022-11-12T06:52:51.334Z,6.10
2022-11-12T06:53:51.313Z,6.11
2022-11-12T06:54:51.303Z,6.16
2022-11-12T06:55:51.301Z,6.20
2022-11-12T06:56:51.294Z,6.20
2022-11-12T06:57:51.284Z,6.20
2022-11-12T06:58:51.263Z,6.20
2022-11-12T06:59:51.243Z,6.21
2022-11-12T07:00:51.233Z,6.21
2022-11-12T07:01:51.301Z,6.27
2022-11-12T07:02:51.522Z,6.28
2022-11-12T07:03:51.200Z,6.28
2022-11-12T07:04:51.734Z,6.30
2022-11-12T07:05:51.171Z,6.33
2022-11-12T07:06:51.196Z,6.35
2022-11-12T07:07:51.144Z,6.38
2022-11-12T07:08:51.143Z,6.39
2022-11-12T07:09:51.169Z,6.42
2022-11-12T07:10:51.106Z,6.46
2022-11-12T07:11:51.097Z,6.57
2022-11-12T07:12:53.550Z,6.63
2022-11-12T07:13:51.079Z,6.68
2022-11-12T07:14:51.066Z,6.75
2022-11-12T07:15:51.181Z,6.79
2022-11-12T07:16:51.055Z,6.87
2022-11-12T07:17:51.029Z,6.93
2022-11-12T07:18:51.011Z,6.99
2022-11-12T07:19:51.029Z,7.07
2022-11-12T07:20:51.014Z,7.09
2022-11-12T07:21:50.984Z,7.09
2022-11-12T07:22:50.966Z,7.08
2022-11-12T07:23:50.958Z,7.08
2022-11-12T07:24:50.958Z,7.08
2022-11-12T07:25:50.915Z,7.09
2022-11-12T07:26:50.935Z,7.07
2022-11-12T07:27:51.033Z,7.09
2022-11-12T07:28:50.999Z,7.08
2022-11-12T07:29:50.889Z,7.12
2022-11-12T07:30:50.964Z,7.14
2022-11-12T07:31:50.885Z,7.18
2022-11-12T07:32:52.142Z,7.23
2022-11-12T07:33:50.833Z,7.26
2022-11-12T07:34:50.814Z,7.27
2022-11-12T07:35:50.799Z,7.27
2022-11-12T07:36:50.793Z,7.27
2022-11-12T07:37:51.607Z,7.34
2022-11-12T07:38:50.776Z,7.41
2022-11-12T07:39:50.795Z,7.41
2022-11-12T07:40:50.780Z,7.47
2022-11-12T07:41:50.766Z,7.47
2022-11-12T07:42:50.712Z,7.47
2022-11-12T07:43:50.710Z,7.48
2022-11-12T07:44:50.689Z,7.47
2022-11-12T07:45:50.682Z,7.48
2022-11-12T07:46:50.673Z,7.50
2022-11-12T07:47:50.693Z,7.51
2022-11-12T07:48:50.649Z,7.54
2022-11-12T07:49:50.639Z,7.67
2022-11-12T07:50:50.762Z,7.77
2022-11-12T07:51:50.902Z,7.81
2022-11-12T07:52:50.599Z,7.84
2022-11-12T07:53:53.745Z,7.91
2022-11-12T07:54:51.590Z,8.04
2022-11-12T07:55:50.559Z,8.12
2022-11-12T07:56:50.566Z,8.12
2022-11-12T07:57:50.541Z,8.07
2022-11-12T07:58:50.570Z,8.12
2022-11-12T07:59:50.506Z,8.20
2022-11-12T08:00:50.521Z,8.39
2022-11-12T08:01:50.532Z,8.60
2022-11-12T08:02:50.469Z,8.75
2022-11-12T08:03:50.498Z,8.75
2022-11-12T08:04:50.472Z,8.73
2022-11-12T08:05:50.429Z,8.68
2022-11-12T08:06:50.588Z,8.63
2022-11-12T08:07:50.655Z,8.60
2022-11-12T08:08:50.393Z,8.61
2022-11-12T08:09:50.451Z,8.61
2022-11-12T08:10:50.357Z,8.55
2022-11-12T08:11:50.355Z,8.49
2022-11-12T08:12:50.385Z,8.43
2022-11-12T08:13:50.346Z,8.40
2022-11-12T08:14:50.335Z,8.37
2022-11-12T08:15:52.391Z,8.37
2022-11-12T08:16:50.295Z,8.37
2022-11-12T08:17:50.275Z,8.36
2022-11-12T08:18:50.377Z,8.34
2022-11-12T08:19:50.234Z,8.32
2022-11-12T08:20:50.225Z,8.37
2022-11-12T08:21:50.219Z,8.34
2022-11-12T08:22:50.205Z,8.36
2022-11-12T08:23:50.188Z,8.37
2022-11-12T08:24:50.173Z,8.43
2022-11-12T08:25:50.163Z,8.47
2022-11-12T08:26:50.162Z,8.50
2022-11-12T08:27:50.175Z,8.52
2022-11-12T08:28:50.132Z,8.54
2022-11-12T08:29:50.131Z,8.52
2022-11-12T08:30:50.123Z,8.54
2022-11-12T08:31:50.078Z,8.55
2022-11-12T08:32:50.074Z,8.57
2022-11-12T08:33:50.050Z,8.61
2022-11-12T08:34:50.057Z,8.64
2022-11-12T08:35:50.052Z,8.68
2022-11-12T08:36:50.011Z,8.70
2022-11-12T08:37:49.999Z,8.70
2022-11-12T08:38:50.023Z,8.73
2022-11-12T08:39:50.000Z,8.76
2022-11-12T08:40:49.970Z,8.75
2022-11-12T08:41:49.946Z,8.78
2022-11-12T08:42:49.947Z,8.80
2022-11-12T08:43:49.923Z,8.83
2022-11-12T08:44:49.905Z,8.89
2022-11-12T08:45:49.897Z,8.94
2022-11-12T08:46:49.878Z,9.00
2022-11-12T08:47:49.869Z,9.01
2022-11-12T08:48:51.430Z,9.04
2022-11-12T08:49:50.182Z,9.12
2022-11-12T08:50:50.212Z,9.15
2022-11-12T08:51:49.810Z,9.16
2022-11-12T08:52:49.871Z,9.19
2022-11-12T08:53:49.786Z,9.20
2022-11-12T08:54:49.847Z,9.23
2022-11-12T08:55:49.756Z,9.23
2022-11-12T08:56:49.778Z,9.24
2022-11-12T08:57:49.841Z,9.26
2022-11-12T08:58:49.814Z,9.30
2022-11-12T08:59:49.783Z,9.30
2022-11-12T09:00:49.717Z,9.32
2022-11-12T09:01:49.767Z,9.37
2022-11-12T09:02:49.665Z,9.38
2022-11-12T09:03:49.784Z,9.41
2022-11-12T09:04:49.638Z,9.41
2022-11-12T09:05:49.652Z,9.45
2022-11-12T09:06:53.760Z,9.50
2022-11-12T09:07:50.940Z,9.52
2022-11-12T09:08:49.594Z,9.56
2022-11-12T09:09:49.602Z,9.58
2022-11-12T09:10:49.574Z,9.59
2022-11-12T09:11:49.581Z,9.60
2022-11-12T09:12:49.642Z,9.63
2022-11-12T09:13:49.666Z,9.65
2022-11-12T09:14:53.363Z,9.68
2022-11-12T09:15:50.623Z,9.70
2022-11-12T09:16:49.529Z,9.74
2022-11-12T09:17:49.561Z,9.77
2022-11-12T09:18:49.502Z,9.80
2022-11-12T09:19:49.482Z,9.85
2022-11-12T09:20:49.451Z,9.88
2022-11-12T09:21:49.523Z,9.91
2022-11-12T09:22:49.568Z,9.93
2022-11-12T09:23:49.400Z,9.98
2022-11-12T09:24:49.393Z,9.98
2022-11-12T09:25:49.382Z,9.99
2022-11-12T09:26:49.382Z,10.02
2022-11-12T09:27:49.353Z,10.06
2022-11-12T09:28:49.331Z,10.11
2022-11-12T09:29:49.320Z,10.16
2022-11-12T09:30:49.310Z,10.20
2022-11-12T09:31:49.319Z,10.24
2022-11-12T09:32:49.283Z,10.29
2022-11-12T09:33:49.301Z,10.34
2022-11-12T09:34:49.339Z,10.38
2022-11-12T09:35:49.327Z,10.44
2022-11-12T09:36:49.269Z,10.49
2022-11-12T09:37:49.227Z,10.54
2022-11-12T09:38:49.253Z,10.58
2022-11-12T09:39:49.228Z,10.65
2022-11-12T09:40:49.198Z,10.69
2022-11-12T09:41:49.178Z,10.72
2022-11-12T09:42:49.180Z,10.76
2022-11-12T09:43:49.160Z,10.80
2022-11-12T09:44:49.173Z,10.86
2022-11-12T09:46:00.292Z,10.91
2022-11-12T09:46:50.116Z,10.95
2022-11-12T09:47:49.096Z,11.02
2022-11-12T09:48:49.098Z,11.05
2022-11-12T09:49:49.073Z,11.11
2022-11-12T09:50:49.085Z,11.16
2022-11-12T09:51:49.055Z,11.19
2022-11-12T09:52:49.137Z,11.24
2022-11-12T09:53:49.058Z,11.27
2022-11-12T09:54:49.054Z,11.33
2022-11-12T09:55:49.014Z,11.41
2022-11-12T09:56:49.005Z,11.45
2022-11-12T09:57:49.015Z,11.49
2022-11-12T09:58:48.986Z,11.53
2022-11-12T09:59:49.095Z,11.56
2022-11-12T10:00:48.983Z,11.56
2022-11-12T10:01:49.662Z,11.60
2022-11-12T10:02:49.264Z,11.64
2022-11-12T10:03:48.892Z,11.70
2022-11-12T10:04:48.882Z,11.77
2022-11-12T10:05:48.871Z,11.78
2022-11-12T10:06:48.885Z,11.72
2022-11-12T10:08:00.824Z,11.69
2022-11-12T10:08:48.874Z,11.67
2022-11-12T10:09:48.888Z,11.66
2022-11-12T10:10:50.389Z,11.64
2022-11-12T10:11:48.799Z,11.62
2022-11-12T10:12:48.792Z,11.59
2022-11-12T10:13:48.838Z,11.59
2022-11-12T10:14:48.826Z,11.60
2022-11-12T10:15:49.017Z,11.60
2022-11-12T10:16:48.808Z,11.59
2022-11-12T10:17:48.727Z,11.60
2022-11-12T10:18:48.729Z,11.63
2022-11-12T10:19:48.827Z,11.66
2022-11-12T10:20:48.715Z,11.67
2022-11-12T10:21:48.657Z,11.69
2022-11-12T10:22:48.726Z,11.75
2022-11-12T10:23:48.697Z,11.74
2022-11-12T10:24:48.637Z,11.77
2022-11-12T10:25:48.684Z,11.78
2022-11-12T10:26:48.618Z,11.81
2022-11-12T10:27:48.619Z,11.84
2022-11-12T10:28:48.594Z,11.88
2022-11-12T10:29:48.572Z,11.93
2022-11-12T10:30:48.566Z,11.93
2022-11-12T10:31:48.746Z,11.96
2022-11-12T10:32:48.651Z,11.98
2022-11-12T10:33:48.646Z,12.00
2022-11-12T10:34:48.564Z,12.04
2022-11-12T10:35:48.577Z,12.11
2022-11-12T10:36:48.483Z,12.15
2022-11-12T10:37:48.464Z,12.21
2022-11-12T10:38:48.456Z,12.23
2022-11-12T10:39:48.492Z,12.29
2022-11-12T10:40:48.491Z,12.30
2022-11-12T10:41:48.433Z,12.29
2022-11-12T10:42:48.573Z,12.31
2022-11-12T10:43:48.382Z,12.36
2022-11-12T10:44:48.488Z,12.36
2022-11-12T10:45:48.361Z,12.40
2022-11-12T10:46:48.514Z,12.41
2022-11-12T10:47:48.354Z,12.46
2022-11-12T10:48:48.369Z,12.49
2022-11-12T10:49:48.298Z,12.54
2022-11-12T10:50:48.309Z,12.54
2022-11-12T10:51:48.284Z,12.55
2022-11-12T10:52:48.273Z,12.55
2022-11-12T10:53:48.256Z,12.58
2022-11-12T10:54:53.932Z,12.62
2022-11-12T10:55:49.421Z,12.67
2022-11-12T10:56:48.232Z,12.69
2022-11-12T10:57:48.213Z,12.70
2022-11-12T10:58:48.396Z,12.73
2022-11-12T10:59:48.241Z,12.74
2022-11-12T11:00:48.194Z,12.76
2022-11-12T11:01:48.228Z,12.73
2022-11-12T11:02:48.202Z,12.74
2022-11-12T11:03:48.149Z,12.76
2022-11-12T11:04:48.124Z,12.80
2022-11-12T11:05:48.162Z,12.81
2022-11-12T11:06:48.201Z,12.89
2022-11-12T11:07:48.107Z,12.91
2022-11-12T11:08:48.082Z,12.89
2022-11-12T11:09:48.189Z,12.91
2022-11-12T11:10:48.034Z,12.92
2022-11-12T11:11:48.061Z,12.91
2022-11-12T11:12:48.031Z,12.94
2022-11-12T11:13:52.773Z,12.94
2022-11-12T11:14:48.987Z,12.91
2022-11-12T11:15:48.051Z,12.87
2022-11-12T11:16:47.989Z,12.88
2022-11-12T11:17:47.945Z,12.91
2022-11-12T11:18:47.954Z,12.94
2022-11-12T11:19:47.960Z,12.95
2022-11-12T11:20:47.917Z,12.99
2022-11-12T11:21:47.901Z,13.04
2022-11-12T11:22:47.886Z,13.09
2022-11-12T11:23:48.866Z,13.09
2022-11-12T11:24:47.845Z,13.07
2022-11-12T11:25:48.565Z,13.03
2022-11-12T11:26:47.829Z,13.03
2022-11-12T11:27:47.895Z,13.04
2022-11-12T11:28:47.805Z,13.01
2022-11-12T11:29:47.797Z,13.03
2022-11-12T11:30:47.796Z,13.03
2022-11-12T11:31:47.777Z,13.04
2022-11-12T11:32:47.809Z,13.01
2022-11-12T11:33:47.746Z,13.01
2022-11-12T11:34:48.498Z,13.03
2022-11-12T11:35:48.117Z,13.06
2022-11-12T11:36:47.720Z,13.07
2022-11-12T11:37:47.699Z,13.06
2022-11-12T11:38:47.689Z,13.07
2022-11-12T11:39:47.664Z,13.04
2022-11-12T11:40:47.696Z,13.01
2022-11-12T11:41:47.730Z,12.96
2022-11-12T11:42:47.828Z,12.95
2022-11-12T11:43:47.678Z,12.95
2022-11-12T11:44:47.585Z,12.95
2022-11-12T11:45:47.602Z,12.92
2022-11-12T11:46:47.568Z,12.91
2022-11-12T11:48:00.493Z,12.91
2022-11-12T11:48:48.560Z,12.91
2022-11-12T11:49:47.544Z,12.89
2022-11-12T11:50:47.523Z,12.88
2022-11-12T11:51:47.511Z,12.88
2022-11-12T11:52:47.601Z,12.87
2022-11-12T11:53:47.494Z,12.87
2022-11-12T11:54:47.521Z,12.91
2022-11-12T11:55:47.459Z,12.92
2022-11-12T11:56:47.461Z,13.01
2022-11-12T11:57:47.430Z,13.10
2022-11-12T11:58:47.421Z,13.12
2022-11-12T11:59:47.415Z,13.14
2022-11-12T12:00:47.401Z,13.14
2022-11-12T12:01:47.411Z,13.17
2022-11-12T12:02:47.438Z,13.19
2022-11-12T12:03:47.602Z,13.17
2022-11-12T12:04:47.352Z,13.16
2022-11-12T12:05:47.571Z,13.14
2022-11-12T12:06:47.364Z,13.13
2022-11-12T12:07:47.309Z,13.12
2022-11-12T12:08:47.376Z,13.12
2022-11-12T12:09:47.339Z,13.12
2022-11-12T12:11:06.796Z,13.12
2022-11-12T12:11:48.248Z,13.14
2022-11-12T12:12:47.249Z,13.16
2022-11-12T12:13:47.291Z,13.16
2022-11-12T12:14:47.249Z,13.16
2022-11-12T12:15:47.225Z,13.16
2022-11-12T12:16:47.451Z,13.14
2022-11-12T12:17:47.229Z,13.16
2022-11-12T12:18:47.191Z,13.16
2022-11-12T12:19:47.251Z,13.19
2022-11-12T12:20:47.145Z,13.22
2022-11-12T12:21:47.164Z,13.24
2022-11-12T12:22:47.165Z,13.22
2022-11-12T12:23:47.128Z,13.22
2022-11-12T12:24:47.192Z,13.21
2022-11-12T12:25:47.098Z,13.24
2022-11-12T12:26:48.115Z,13.21
2022-11-12T12:27:47.988Z,13.19
2022-11-12T12:28:47.068Z,13.17
2022-11-12T12:29:47.107Z,13.19
2022-11-12T12:30:47.035Z,13.19
2022-11-12T12:31:47.022Z,13.21
2022-11-12T12:32:47.025Z,13.21
2022-11-12T12:33:48.145Z,13.19
2022-11-12T12:34:47.014Z,13.19
2022-11-12T12:35:47.223Z,13.21
2022-11-12T12:36:47.022Z,13.21
2022-11-12T12:37:46.951Z,13.22
2022-11-12T12:38:46.977Z,13.19
2022-11-12T12:39:48.218Z,13.16
2022-11-12T12:40:46.865Z,13.13
2022-11-12T12:41:46.867Z,13.16
2022-11-12T12:42:46.888Z,13.16
2022-11-12T12:43:46.840Z,13.17
2022-11-12T12:44:46.867Z,13.17
2022-11-12T12:45:46.836Z,13.22
2022-11-12T12:46:46.840Z,13.27
2022-11-12T12:47:46.821Z,13.29
2022-11-12T12:48:46.816Z,13.32
2022-11-12T12:49:46.772Z,13.32
2022-11-12T12:50:46.991Z,13.36
2022-11-12T12:51:49.317Z,13.36
2022-11-12T12:52:47.756Z,13.32
2022-11-12T12:53:46.722Z,13.32
2022-11-12T12:54:46.806Z,13.29
2022-11-12T12:55:46.713Z,13.29
2022-11-12T12:56:46.676Z,13.31
2022-11-12T12:57:46.673Z,13.31
2022-11-12T12:58:46.684Z,13.31
2022-11-12T12:59:46.635Z,13.31
2022-11-12T13:00:46.729Z,13.29
2022-11-12T13:01:46.683Z,13.31
2022-11-12T13:02:46.592Z,13.31
2022-11-12T13:03:46.615Z,13.31
2022-11-12T13:04:46.572Z,13.31
2022-11-12T13:05:46.621Z,13.31
2022-11-12T13:06:46.578Z,13.32
2022-11-12T13:07:46.542Z,13.35
2022-11-12T13:08:46.545Z,13.36
2022-11-12T13:09:46.672Z,13.38
2022-11-12T13:10:46.870Z,13.36